Time;durP1;ratioP1;P1;durP2;ratioP2;P2;SDS_P1;SDS_P2;PMS_P1;PMS_P2;Temp;Humidity;BMP_temperature;BMP_pressure;BME280_temperature;BME280_humidity;BME280_pressure;Samples;Min_cycle;Max_cycle;Signal;HPM_P1;HPM_P2
2023/01/21 00:01:04;;;;;;;;;9.67;8.00;;;;;8.18;69.27;-18111.13;5016207;28;45461;-87
2023/01/21 00:03:29;;;;;;;;;8.67;7.67;;;;;7.63;69.11;-17768.25;5017210;28;45522;-86
2023/01/21 00:05:57;;;;;;;;;6.33;6.33;;;;;8.51;69.28;-18119.19;5031593;28;46638;-85
2023/01/21 00:08:22;;;;;;;;;7.67;7.67;;;;;8.65;69.51;-18122.56;5035029;28;45633;-85
2023/01/21 00:10:48;;;;;;;;;8.67;7.33;;;;;8.35;69.30;-18115.22;5035915;28;46524;-85
2023/01/21 00:13:13;;;;;;;;;7.00;5.33;;;;;7.95;69.41;-18105.63;5034679;28;46060;-86
2023/01/21 00:15:38;;;;;;;;;7.67;7.67;;;;;8.59;69.58;-18121.19;5018725;28;45385;-86
2023/01/21 00:18:04;;;;;;;;;5.67;5.00;;;;;8.29;69.91;-18113.72;5024816;28;45275;-85
2023/01/21 00:20:29;;;;;;;;;6.33;5.00;;;;;8.63;69.69;-18122.06;5035642;28;45888;-85
2023/01/21 00:22:54;;;;;;;;;8.00;6.00;;;;;8.22;69.82;-18441.81;5036108;28;45839;-86
2023/01/21 00:25:20;;;;;;;;;7.00;6.00;;;;;8.19;69.63;-18441.19;5036016;28;45480;-85
2023/01/21 00:27:46;;;;;;;;;5.67;5.67;;;;;8.41;69.64;-18446.66;5036268;28;45497;-85
2023/01/21 00:30:12;;;;;;;;;7.00;5.67;;;;;8.45;69.91;-18447.53;5036082;28;46028;-85
2023/01/21 00:32:37;;;;;;;;;7.00;4.00;;;;;8.08;69.46;-18438.38;5034158;28;45895;-86
2023/01/21 00:35:04;;;;;;;;;5.33;3.33;;;;;8.13;70.20;-18439.66;5033935;28;45737;-85
2023/01/21 00:37:29;;;;;;;;;4.33;4.33;;;;;8.44;70.09;-18447.28;5036178;28;45526;-85
2023/01/21 00:39:54;;;;;;;;;6.33;6.33;;;;;7.65;70.10;-18427.59;5029812;28;45983;-85
2023/01/21 00:42:20;;;;;;;;;4.00;4.00;;;;;8.64;70.12;-18452.38;5028464;28;46237;-85
2023/01/21 00:44:45;;;;;;;;;6.33;5.33;;;;;8.51;69.90;-18448.94;5025099;28;45935;-85
2023/01/21 00:47:10;;;;;;;;;4.00;4.00;;;;;7.95;70.34;-18435.22;5016239;28;45437;-85
2023/01/21 00:49:36;;;;;;;;;7.00;6.00;;;;;8.62;70.62;-18781.78;5015734;28;47096;-85
2023/01/21 00:52:01;;;;;;;;;1.00;1.00;;;;;8.45;70.12;-18447.69;5033250;28;45422;-85
2023/01/21 00:54:26;;;;;;;;;8.67;5.00;;;;;8.56;70.24;-18780.22;5035969;28;45513;-85
2023/01/21 00:56:52;;;;;;;;;4.67;4.67;;;;;8.68;69.99;-18783.06;5035747;28;45981;-86
2023/01/21 00:59:17;;;;;;;;;5.67;3.00;;;;;8.69;70.41;-18783.31;5030091;28;46390;-85
2023/01/21 01:01:42;;;;;;;;;6.33;4.67;;;;;8.41;69.93;-18446.66;5015479;28;45426;-85
2023/01/21 01:04:10;;;;;;;;;5.00;4.00;;;;;8.29;70.37;-18773.34;5016683;28;45466;-85
2023/01/21 01:06:36;;;;;;;;;4.00;4.00;;;;;8.67;70.55;-18782.94;5032774;28;45479;-85
2023/01/21 01:09:02;;;;;;;;;7.00;5.00;;;;;8.65;70.25;-18782.41;5030050;28;45491;-86
2023/01/21 01:11:29;;;;;;;;;3.00;3.00;;;;;8.63;70.46;-18782.03;5035530;28;45614;-86
2023/01/21 01:13:55;;;;;;;;;5.33;4.00;;;;;8.28;70.48;-18773.06;5034107;28;45598;-86
2023/01/21 01:16:21;;;;;;;;;6.33;3.00;;;;;8.70;70.19;-18783.59;5037707;28;45473;-86
2023/01/21 01:18:47;;;;;;;;;4.00;4.00;;;;;8.63;69.84;-18452.00;5028930;28;45559;-86
2023/01/21 01:21:18;;;;;;;;;5.67;5.33;;;;;8.68;69.70;-18453.25;5033269;28;45411;-85
2023/01/21 01:23:44;;;;;;;;;5.67;5.67;;;;;8.51;69.50;-18449.06;5038170;28;45530;-86
2023/01/21 01:26:13;;;;;;;;;4.00;4.00;;;;;8.74;69.98;-18454.78;5039129;28;45462;-86
2023/01/21 01:28:38;;;;;;;;;5.67;5.00;;;;;8.76;69.87;-18785.16;5031296;28;45438;-86
2023/01/21 01:31:07;;;;;;;;;6.00;6.00;;;;;8.74;69.21;-18124.66;5018291;28;45442;-86
2023/01/21 01:33:33;;;;;;;;;5.00;4.67;;;;;8.75;69.20;-18124.91;5019142;28;45489;-86
2023/01/21 01:36:05;;;;;;;;;7.00;7.00;;;;;8.74;69.04;-18124.78;5017532;28;45522;-85
2023/01/21 01:38:31;;;;;;;;;7.00;7.00;;;;;8.65;68.78;-18122.56;5021978;28;45530;-85
2023/01/21 01:40:56;;;;;;;;;9.00;7.00;;;;;8.48;68.70;-18118.44;5038230;28;45479;-88
2023/01/21 01:43:25;;;;;;;;;11.33;8.00;;;;;8.76;67.74;-17465.06;5038552;28;45805;-87
2023/01/21 01:45:52;;;;;;;;;9.00;7.67;;;;;8.73;67.26;-17464.47;5038779;28;45614;-88
2023/01/21 01:48:30;;;;;;;;;7.67;5.33;;;;;8.71;67.81;-17464.00;5038298;28;45376;-88
2023/01/21 01:51:02;;;;;;;;;9.67;9.67;;;;;8.44;67.67;-17127.91;5038134;28;45563;-88
2023/01/21 01:53:30;;;;;;;;;12.00;9.00;;;;;8.45;67.30;-17128.00;5037863;28;45548;-88
2023/01/21 01:55:57;;;;;;;;;13.33;10.33;;;;;8.69;67.31;-16803.28;5037975;28;45532;-86
2023/01/21 01:58:23;;;;;;;;;12.33;10.33;;;;;8.71;67.64;-17133.94;5037605;28;45527;-86
2023/01/21 02:00:48;;;;;;;;;12.00;12.00;;;;;8.65;66.78;-16802.59;5037866;28;45438;-86
2023/01/21 02:06:00;;;;;;;;;10.33;9.00;;;;;8.73;65.84;-16144.00;5022448;28;45413;-88
2023/01/21 02:08:27;;;;;;;;;7.33;7.33;;;;;8.72;65.87;-16143.69;5037701;28;45405;-88
2023/01/21 02:10:55;;;;;;;;;13.67;11.33;;;;;8.70;65.20;-15482.91;5038056;28;45444;-88
2023/01/21 02:13:23;;;;;;;;;8.33;8.00;;;;;8.30;64.80;-15474.88;5038080;28;46081;-88
2023/01/21 02:15:52;;;;;;;;;8.33;8.33;;;;;8.69;64.76;-15152.56;5029604;28;45489;-88
2023/01/21 02:18:17;;;;;;;;;9.33;7.00;;;;;8.69;64.39;-14822.22;5016404;28;47719;-88
2023/01/21 02:21:05;;;;;;;;;8.00;8.00;;;;;8.67;64.48;-14821.94;5029782;28;45416;-87
2023/01/21 02:23:48;;;;;;;;;13.00;9.33;;;;;8.68;64.38;-14822.13;5025612;28;45509;-88
2023/01/21 02:26:52;;;;;;;;;7.33;7.33;;;;;8.64;64.38;-14821.44;5016930;28;45390;-87
2023/01/21 02:30:04;;;;;;;;;9.00;9.00;;;;;8.67;65.01;-15152.16;5029757;28;45666;-89
2023/01/21 02:32:51;;;;;;;;;7.00;7.00;;;;;8.66;64.63;-14821.84;4860502;29;45576;-89
2023/01/21 02:35:38;;;;;;;;;11.33;8.33;;;;;8.62;64.51;-14490.72;4860999;29;45553;-89
2023/01/21 02:38:15;;;;;;;;;12.00;9.00;;;;;8.28;64.25;-14484.38;4860223;29;45959;-88
2023/01/21 02:41:18;;;;;;;;;9.33;9.33;;;;;8.57;64.33;-14489.78;4861069;29;45680;-85
2023/01/21 02:44:11;;;;;;;;;13.33;9.67;;;;;8.51;64.10;-13828.19;4848017;29;45674;-86
2023/01/21 02:46:43;;;;;;;;;8.67;8.67;;;;;8.21;63.55;-13492.91;4861177;29;45500;-86
2023/01/21 02:49:23;;;;;;;;;13.00;9.33;;;;;8.38;63.13;-13165.53;4861465;29;45850;-86
2023/01/21 02:51:49;;;;;;;;;10.33;8.33;;;;;8.34;62.60;-12504.34;4860404;29;45504;-85
2023/01/21 02:54:37;;;;;;;;;9.67;9.67;;;;;8.32;63.54;-12834.31;4860131;29;45511;-84
2023/01/21 02:57:17;;;;;;;;;13.33;13.00;;;;;8.24;63.65;-12833.09;4855906;29;45706;-85
2023/01/21 02:59:48;;;;;;;;;12.33;11.33;;;;;8.06;62.66;-12169.91;4850960;29;45437;-85
2023/01/21 03:02:40;;;;;;;;;15.00;14.00;;;;;8.22;62.48;-12172.34;4854042;29;46268;-85
2023/01/21 03:05:43;;;;;;;;;11.33;9.67;;;;;8.17;62.45;-11841.34;4860120;29;45448;-85
2023/01/21 03:08:20;;;;;;;;;13.33;11.00;;;;;7.79;62.81;-11835.94;4845435;28;45384;-84
2023/01/21 03:10:56;;;;;;;;;10.33;10.00;;;;;8.11;62.16;-11180.06;5027546;28;45417;-85
2023/01/21 03:19:12;;;;;;;;;13.33;12.00;;;;;7.93;60.72;-9526.41;5036460;28;45496;-86
2023/01/21 03:21:39;;;;;;;;;13.33;13.33;;;;;7.85;60.96;-9195.31;5031785;28;45770;-85
2023/01/21 03:24:05;;;;;;;;;18.33;13.00;;;;;7.75;60.73;-8864.03;5022013;28;47499;-85
2023/01/21 03:26:37;;;;;;;;;20.67;16.33;;;;;7.43;60.26;-8200.69;5029614;28;45417;-86
2023/01/21 03:29:10;;;;;;;;;13.33;11.33;;;;;7.77;60.28;-8533.97;5029248;28;45374;-85
2023/01/21 03:31:39;;;;;;;;;14.67;14.67;;;;;7.49;60.18;-8201.25;5036618;28;45440;-85
2023/01/21 03:34:10;;;;;;;;;17.00;15.00;;;;;7.71;60.17;-7872.78;5024794;28;46421;-85
2023/01/21 03:36:51;;;;;;;;;17.67;17.00;;;;;7.69;60.35;-7542.22;5016522;28;45603;-85
2023/01/21 03:40:01;;;;;;;;;14.67;12.67;;;;;7.65;59.56;-7211.56;5026773;28;45394;-85
2023/01/21 03:42:27;;;;;;;;;15.00;15.00;;;;;7.66;59.85;-6881.25;4966494;28;45392;-85
2023/01/21 03:44:52;;;;;;;;;12.67;12.00;;;;;7.14;59.50;-6878.03;4984680;28;45517;-87
2023/01/21 03:47:37;;;;;;;;;15.67;14.33;;;;;7.62;59.66;-6881.03;4973976;28;45597;-86
2023/01/21 03:50:17;;;;;;;;;15.33;15.33;;;;;7.58;59.30;-6220.03;4974870;28;45536;-87
2023/01/21 03:52:44;;;;;;;;;18.00;18.00;;;;;6.60;59.44;-6214.91;4986478;28;45670;-88
2023/01/21 03:55:11;;;;;;;;;23.67;16.33;;;;;7.43;59.44;-5888.88;4983634;28;45604;-86
2023/01/21 03:57:37;;;;;;;;;22.33;18.33;;;;;7.37;59.75;-5888.59;4974415;28;45423;-87
2023/01/21 04:00:05;;;;;;;;;18.67;16.33;;;;;7.52;59.62;-5889.31;4958136;28;45459;-86
2023/01/21 04:02:30;;;;;;;;;16.33;16.33;;;;;7.51;59.56;-5558.81;4974643;28;45550;-86
2023/01/21 04:04:55;;;;;;;;;17.67;15.00;;;;;7.42;59.79;-5888.81;4974056;28;45479;-86
2023/01/21 04:07:21;;;;;;;;;22.00;18.67;;;;;7.50;59.29;-5558.78;4974483;28;45608;-86
2023/01/21 04:09:48;;;;;;;;;15.00;15.00;;;;;7.22;59.24;-5227.34;4990014;28;45915;-86
2023/01/21 04:12:14;;;;;;;;;17.33;12.67;;;;;6.97;59.29;-5226.44;4994368;28;45456;-87
2023/01/21 04:14:39;;;;;;;;;18.00;13.67;;;;;7.31;59.12;-4897.28;4977155;28;47152;-89
2023/01/21 04:17:05;;;;;;;;;17.67;16.33;;;;;6.58;59.02;-4565.00;4995099;28;45412;-87
2023/01/21 04:19:30;;;;;;;;;16.67;14.67;;;;;7.16;59.01;-4566.50;5016789;28;45407;-88
2023/01/21 04:21:55;;;;;;;;;15.33;14.67;;;;;6.38;59.72;-4564.50;5024839;28;45458;-87
2023/01/21 04:24:21;;;;;;;;;17.67;17.67;;;;;7.32;58.79;-4236.47;5025163;28;46116;-86
2023/01/21 04:26:46;;;;;;;;;21.67;20.00;;;;;7.24;58.91;-4236.31;5034111;28;45536;-87
2023/01/21 04:29:11;;;;;;;;;22.33;19.33;;;;;6.97;58.87;-4235.78;5026778;28;46086;-85
2023/01/21 04:31:37;;;;;;;;;17.67;15.67;;;;;6.72;59.15;-3905.13;5035277;28;45449;-86
2023/01/21 04:34:02;;;;;;;;;21.67;15.33;;;;;6.53;59.22;-3904.84;5033333;28;47184;-85
2023/01/21 04:36:28;;;;;;;;;16.33;15.67;;;;;6.69;59.28;-3905.06;5035886;28;45420;-85
2023/01/21 04:38:53;;;;;;;;;18.33;16.00;;;;;6.76;59.33;-3575.00;5034108;28;45475;-86
2023/01/21 04:41:18;;;;;;;;;13.33;13.33;;;;;6.43;59.22;-3574.66;5035379;28;45526;-89
2023/01/21 04:43:44;;;;;;;;;19.67;16.33;;;;;7.07;59.09;-3244.91;5036321;28;45554;-88
2023/01/21 04:46:09;;;;;;;;;14.33;14.33;;;;;7.04;59.55;-3244.91;5036052;28;45441;-90
2023/01/21 04:48:34;;;;;;;;;17.00;15.67;;;;;7.00;59.54;-2914.50;5035391;28;45472;-88
2023/01/21 04:51:00;;;;;;;;;11.33;11.33;;;;;6.21;59.27;-2584.59;5038012;28;45464;-89
2023/01/21 04:53:25;;;;;;;;;12.00;12.00;;;;;6.49;59.30;-2584.41;5039100;28;45901;-87
2023/01/21 04:55:51;;;;;;;;;19.33;16.33;;;;;6.74;59.12;-2584.25;5039009;28;45463;-86
2023/01/21 04:58:17;;;;;;;;;17.00;13.67;;;;;6.53;58.95;-2254.22;5039128;28;45381;-88
2023/01/21 05:00:42;;;;;;;;;16.33;13.67;;;;;6.66;59.39;-2254.06;5038095;28;45880;-88
2023/01/21 05:03:07;;;;;;;;;11.33;11.33;;;;;6.87;59.29;-2253.81;5035810;28;47159;-88
2023/01/21 05:05:33;;;;;;;;;13.00;13.00;;;;;6.68;59.40;-2254.03;5039244;28;45681;-88
2023/01/21 05:07:58;;;;;;;;;19.00;16.00;;;;;6.42;59.13;-1924.19;5025420;28;45348;-88
2023/01/21 05:10:24;;;;;;;;;17.00;15.00;;;;;6.77;59.69;-1923.59;5027052;28;45413;-87
2023/01/21 05:12:49;;;;;;;;;17.33;14.67;;;;;6.70;59.11;-1593.38;5039052;28;45913;-87
2023/01/21 05:15:14;;;;;;;;;19.00;14.67;;;;;6.67;59.71;-1593.44;5038805;28;45572;-88
2023/01/21 05:17:40;;;;;;;;;19.33;14.67;;;;;6.62;59.88;-1593.56;5037901;28;45320;-88
2023/01/21 05:20:05;;;;;;;;;17.67;15.67;;;;;6.58;59.62;-1593.66;5039163;28;45345;-88
2023/01/21 05:22:31;;;;;;;;;22.00;16.67;;;;;6.56;59.43;-1593.69;5038595;28;45426;-88
2023/01/21 05:24:58;;;;;;;;;19.67;16.67;;;;;6.53;59.96;-1593.75;5037108;28;45467;-88
2023/01/21 05:27:23;;;;;;;;;23.67;16.67;;;;;6.39;60.36;-1924.22;5039460;28;45683;-89
2023/01/21 05:29:49;;;;;;;;;19.33;18.33;;;;;6.47;60.00;-1593.88;5039180;28;45438;-88
2023/01/21 05:32:14;;;;;;;;;26.67;20.67;;;;;6.44;60.15;-1593.97;5038128;28;45527;-88
2023/01/21 05:34:39;;;;;;;;;20.67;16.00;;;;;6.25;60.48;-1594.38;5037315;28;46153;-88
2023/01/21 05:37:05;;;;;;;;;22.00;19.00;;;;;6.19;60.09;-1264.44;5037206;28;45643;-88
2023/01/21 05:39:30;;;;;;;;;24.67;18.00;;;;;6.27;60.59;-1594.34;5039000;28;45488;-87
2023/01/21 05:41:55;;;;;;;;;24.67;17.00;;;;;5.72;60.42;-1265.69;5037958;28;45679;-89
2023/01/21 05:44:21;;;;;;;;;19.00;17.33;;;;;5.65;60.33;-1265.88;5037546;28;45587;-89
2023/01/21 05:46:46;;;;;;;;;18.67;18.67;;;;;6.04;60.57;-1264.84;5037493;28;45438;-88
2023/01/21 05:49:11;;;;;;;;;17.33;17.33;;;;;6.14;60.38;-934.47;5039315;28;45429;-90
2023/01/21 05:51:37;;;;;;;;;20.00;18.00;;;;;5.68;60.27;-935.97;5039061;28;46239;-89
2023/01/21 05:54:02;;;;;;;;;18.00;16.67;;;;;6.17;60.62;-934.38;5037137;28;45390;-87
2023/01/21 05:56:27;;;;;;;;;21.67;18.67;;;;;6.16;61.00;-934.41;5038548;28;45501;-89
2023/01/21 05:58:53;;;;;;;;;14.00;14.00;;;;;5.71;60.37;-935.88;5037745;28;45351;-90
2023/01/21 06:01:18;;;;;;;;;19.00;19.00;;;;;6.09;60.74;-604.53;5036339;28;47515;-88
2023/01/21 06:03:43;;;;;;;;;19.00;16.33;;;;;5.39;61.03;-607.19;5037427;28;45379;-89
2023/01/21 06:06:09;;;;;;;;;20.00;18.00;;;;;6.03;60.84;-604.75;5038042;28;45399;-90
2023/01/21 06:08:35;;;;;;;;;19.67;16.33;;;;;5.86;60.59;-275.44;5037049;28;45594;-89
2023/01/21 06:11:00;;;;;;;;;22.00;17.33;;;;;5.62;60.72;-606.34;5038070;28;45823;-89
2023/01/21 06:13:25;;;;;;;;;22.33;16.33;;;;;5.92;61.15;-605.16;5036741;28;45451;-89
2023/01/21 06:15:55;;;;;;;;;23.33;19.33;;;;;5.67;61.41;-606.13;5037105;28;45795;-88
2023/01/21 06:18:21;;;;;;;;;21.00;18.33;;;;;5.40;61.63;-607.16;5037132;28;45430;-88
2023/01/21 06:20:47;;;;;;;;;15.67;13.00;;;;;5.86;61.33;-605.41;5037412;28;46559;-89
2023/01/21 06:23:12;;;;;;;;;22.67;20.33;;;;;5.89;61.26;-605.28;5038097;28;45393;-90
2023/01/21 06:25:39;;;;;;;;;20.67;18.67;;;;;5.26;61.56;-607.69;5039057;28;45830;-90
2023/01/21 06:28:05;;;;;;;;;24.25;21.75;;;;;5.86;61.47;-605.41;5039516;28;45434;-90
2023/01/21 06:30:31;;;;;;;;;23.67;19.00;;;;;5.64;61.59;-276.34;5036962;28;47364;-90
2023/01/21 06:32:56;;;;;;;;;24.33;22.33;;;;;5.63;61.66;-606.28;5032617;28;45520;-90
2023/01/21 06:35:22;;;;;;;;;26.50;21.00;;;;;5.58;61.85;-606.47;5037102;28;45363;-91
2023/01/21 06:37:47;;;;;;;;;19.33;18.00;;;;;5.39;61.54;-607.19;5039280;28;45443;-91
2023/01/21 06:40:14;;;;;;;;;25.75;23.25;;;;;5.40;61.58;-607.16;5038152;28;45413;-90
2023/01/21 06:42:39;;;;;;;;;19.33;18.00;;;;;5.39;62.13;-607.19;5036456;28;45486;-89
2023/01/21 06:45:05;;;;;;;;;25.50;22.00;;;;;5.82;61.65;-935.53;5036618;28;45495;-89
2023/01/21 06:47:31;;;;;;;;;22.00;22.00;;;;;5.37;61.89;-936.97;5038331;28;45467;-90
2023/01/21 06:49:56;;;;;;;;;28.00;22.67;;;;;5.83;61.97;-1265.41;5035860;28;47929;-89
2023/01/21 06:52:22;;;;;;;;;28.00;26.00;;;;;5.74;61.80;-1265.66;5037599;28;45476;-89
2023/01/21 06:54:47;;;;;;;;;24.33;22.67;;;;;5.42;61.90;-1266.53;5037685;28;45472;-87
2023/01/21 06:57:13;;;;;;;;;26.50;22.50;;;;;5.58;62.22;-1595.84;5037822;28;45473;-89
2023/01/21 06:59:39;;;;;;;;;23.25;19.75;;;;;5.55;61.94;-1266.16;5035427;28;48319;-89
2023/01/21 07:02:05;;;;;;;;;24.50;22.50;;;;;5.24;62.14;-1267.00;5036971;28;45533;-89
2023/01/21 07:04:30;;;;;;;;;18.00;16.00;;;;;5.55;61.81;-1266.16;5035899;28;45630;-89
2023/01/21 07:06:56;;;;;;;;;26.50;23.75;;;;;5.69;62.13;-1595.59;5036124;28;45441;-89
2023/01/21 07:09:21;;;;;;;;;25.25;23.00;;;;;5.65;61.88;-1925.47;5037229;28;45887;-89
2023/01/21 07:11:47;;;;;;;;;23.25;21.50;;;;;6.02;62.22;-1924.84;5036080;28;45479;-89
2023/01/21 07:14:12;;;;;;;;;30.25;25.00;;;;;5.61;62.00;-1595.78;5035171;28;45432;-89
2023/01/21 07:16:38;;;;;;;;;29.25;26.50;;;;;5.63;61.81;-1925.50;5037524;28;45472;-88
2023/01/21 07:19:04;;;;;;;;;37.00;29.75;;;;;5.29;61.92;-1596.47;5036883;28;46638;-87
2023/01/21 07:21:29;;;;;;;;;26.75;24.25;;;;;5.95;62.29;-1595.03;5036930;28;45543;-88
2023/01/21 07:23:55;;;;;;;;;29.25;25.75;;;;;5.47;62.06;-1596.06;5037032;28;45454;-88
2023/01/21 07:26:21;;;;;;;;;33.00;23.25;;;;;5.69;62.14;-1925.38;5036121;28;45457;-88
2023/01/21 07:28:46;;;;;;;;;31.25;25.75;;;;;5.89;62.48;-1595.16;5035369;28;47450;-88
2023/01/21 07:31:12;;;;;;;;;36.00;29.50;;;;;5.78;62.19;-1595.41;5035621;28;45642;-87
2023/01/21 07:33:38;;;;;;;;;28.00;28.00;;;;;5.83;62.27;-1595.28;5036356;28;45504;-87
2023/01/21 07:36:03;;;;;;;;;28.50;25.75;;;;;5.52;62.42;-1595.97;5037070;28;45889;-86
2023/01/21 07:38:29;;;;;;;;;28.75;26.75;;;;;5.82;62.38;-1595.31;5036130;28;45429;-86
2023/01/21 07:40:54;;;;;;;;;28.00;25.50;;;;;5.80;62.07;-1595.38;5035038;28;45511;-87
2023/01/21 07:43:19;;;;;;;;;35.25;27.75;;;;;5.46;62.48;-1266.41;5036340;28;45446;-86
2023/01/21 07:45:45;;;;;;;;;33.00;28.25;;;;;5.59;62.43;-1266.06;5021053;28;45497;-86
2023/01/21 07:48:11;;;;;;;;;31.00;31.00;;;;;5.74;62.57;-1595.50;5016233;28;45436;-87
2023/01/21 07:50:36;;;;;;;;;34.00;27.75;;;;;5.73;62.51;-1265.69;5016459;28;45484;-86
2023/01/21 07:53:03;;;;;;;;;30.25;25.25;;;;;5.21;62.17;-1267.09;5016543;28;45469;-86
2023/01/21 07:55:29;;;;;;;;;34.50;28.50;;;;;5.70;62.57;-1265.75;5031431;28;45531;-88
2023/01/21 07:57:56;;;;;;;;;50.00;38.50;;;;;5.44;62.59;-1266.44;5032267;28;45599;-87
2023/01/21 08:00:22;;;;;;;;;31.25;26.50;;;;;5.68;62.40;-1595.63;5033204;28;45389;-87
2023/01/21 08:02:50;;;;;;;;;26.50;23.25;;;;;5.68;62.82;-1265.81;5034499;28;45437;-88
2023/01/21 08:05:16;;;;;;;;;29.25;27.00;;;;;5.69;62.61;-1265.78;5025707;28;45544;-87
2023/01/21 08:07:41;;;;;;;;;27.00;22.75;;;;;5.11;62.50;-1596.88;5026877;28;45472;-87
2023/01/21 08:10:07;;;;;;;;;30.00;27.50;;;;;5.45;62.63;-1596.13;5032403;28;45455;-87
2023/01/21 08:12:32;;;;;;;;;34.50;26.25;;;;;5.72;62.37;-1265.69;5034602;28;45464;-87
2023/01/21 08:14:58;;;;;;;;;35.75;31.00;;;;;5.73;62.30;-1265.69;5024595;28;45816;-87
2023/01/21 08:17:23;;;;;;;;;34.50;29.75;;;;;5.63;62.08;-1265.94;5033383;28;46171;-87
2023/01/21 08:19:49;;;;;;;;;30.00;25.75;;;;;5.75;62.72;-1595.47;5035548;28;45417;-88
2023/01/21 08:22:14;;;;;;;;;36.00;27.75;;;;;5.34;62.72;-1596.38;5016351;28;45588;-88
2023/01/21 08:24:39;;;;;;;;;29.25;29.25;;;;;5.06;62.21;-1596.97;5035710;28;45476;-88
2023/01/21 08:27:05;;;;;;;;;24.75;24.75;;;;;5.71;62.31;-1595.56;5035223;28;45456;-88
2023/01/21 08:29:30;;;;;;;;;31.25;29.00;;;;;5.80;62.54;-1595.34;5034765;28;45464;-88
2023/01/21 08:31:56;;;;;;;;;27.50;25.25;;;;;5.49;62.44;-1596.03;5027696;28;45422;-88
2023/01/21 08:34:22;;;;;;;;;32.25;28.00;;;;;5.84;62.32;-1925.13;5028604;28;45577;-88
2023/01/21 08:36:47;;;;;;;;;39.50;34.25;;;;;5.90;61.89;-2254.91;5019964;28;45948;-88
2023/01/21 08:39:14;;;;;;;;;38.75;32.50;;;;;5.22;61.79;-2255.69;5034495;28;45421;-85
2023/01/21 08:41:39;;;;;;;;;30.50;25.00;;;;;5.98;62.12;-2254.84;5035074;28;45487;-85
2023/01/21 08:44:06;;;;;;;;;36.25;28.50;;;;;5.53;62.11;-2255.34;5033942;28;45355;-86
2023/01/21 08:46:31;;;;;;;;;33.00;29.75;;;;;5.79;61.88;-2255.06;5033731;28;48404;-86
2023/01/21 08:48:57;;;;;;;;;32.25;29.00;;;;;5.86;61.95;-2584.78;5033524;28;45705;-86
2023/01/21 08:51:22;;;;;;;;;32.75;31.25;;;;;6.03;62.05;-2584.69;5034964;28;45544;-85
2023/01/21 08:53:49;;;;;;;;;33.50;24.75;;;;;6.00;61.78;-2584.72;5025766;28;45421;-86
2023/01/21 08:56:15;;;;;;;;;42.25;34.25;;;;;5.86;61.29;-2584.78;5032288;28;48215;-86
2023/01/21 08:58:40;;;;;;;;;41.00;34.75;;;;;6.33;61.73;-2584.50;5033428;28;45480;-88
2023/01/21 09:01:10;;;;;;;;;23.00;18.75;;;;;5.81;61.13;-2584.81;5033712;28;45746;-84
2023/01/21 09:03:36;;;;;;;;;38.75;33.25;;;;;6.39;61.28;-2584.47;5037409;28;45611;-84
2023/01/21 09:06:03;;;;;;;;;37.75;33.00;;;;;6.31;61.08;-2584.53;5031883;28;46185;-84
2023/01/21 09:08:29;;;;;;;;;40.50;35.50;;;;;6.09;61.01;-2584.66;5038453;28;45564;-84
2023/01/21 09:11:02;;;;;;;;;31.25;31.25;;;;;6.30;61.17;-2584.53;5035065;28;45708;-85
2023/01/21 09:13:36;;;;;;;;;38.75;30.75;;;;;6.51;61.26;-2584.41;5034993;28;45706;-84
2023/01/21 09:16:06;;;;;;;;;30.50;30.50;;;;;6.39;60.42;-2584.47;5032860;28;46427;-84
2023/01/21 09:18:31;;;;;;;;;33.25;28.75;;;;;6.61;60.91;-2584.34;5033920;28;45468;-85
2023/01/21 09:21:01;;;;;;;;;36.25;33.75;;;;;6.63;60.67;-2584.31;5031965;28;45415;-84
2023/01/21 09:23:27;;;;;;;;;35.50;30.25;;;;;6.62;60.39;-2254.09;5027575;28;46978;-85
2023/01/21 09:25:59;;;;;;;;;42.25;34.25;;;;;6.64;60.33;-2254.06;5029016;28;45535;-85
2023/01/21 09:28:26;;;;;;;;;39.00;33.75;;;;;6.66;60.10;-2254.06;5031509;28;45782;-86
2023/01/21 09:30:58;;;;;;;;;40.50;33.00;;;;;6.66;60.14;-2254.06;5030518;28;45591;-86
2023/01/21 09:33:25;;;;;;;;;36.50;32.00;;;;;6.55;60.21;-2254.19;5030974;28;45594;-87
2023/01/21 09:35:55;;;;;;;;;28.50;27.75;;;;;6.40;60.22;-2254.34;5032209;28;46385;-86
2023/01/21 09:38:22;;;;;;;;;37.25;30.75;;;;;6.74;59.70;-2253.97;5034212;28;45615;-84
2023/01/21 09:40:48;;;;;;;;;33.25;31.50;;;;;6.75;60.12;-2253.94;5035429;28;45453;-86
2023/01/21 09:43:33;;;;;;;;;44.75;33.25;;;;;6.58;59.78;-2254.16;5030062;28;45489;-90
2023/01/21 09:46:02;;;;;;;;;35.75;29.25;;;;;6.85;60.07;-2584.19;5034651;28;45455;-91
2023/01/21 09:48:35;;;;;;;;;34.50;32.75;;;;;6.42;59.48;-2254.34;5037192;28;45773;-88
2023/01/21 09:51:06;;;;;;;;;35.75;29.50;;;;;6.92;59.32;-2253.75;5036361;28;45767;-88
2023/01/21 09:53:41;;;;;;;;;41.00;34.75;;;;;7.01;59.81;-2584.09;5031632;28;45550;-87
2023/01/21 09:56:35;;;;;;;;;34.00;32.25;;;;;7.13;59.38;-2914.47;5027687;28;46371;-89
2023/01/21 09:59:05;;;;;;;;;29.25;26.25;;;;;6.77;58.47;-2584.25;5033726;28;45456;-90
2023/01/21 10:01:35;;;;;;;;;39.50;30.50;;;;;7.19;58.77;-2583.97;5031289;28;45451;-89
2023/01/21 10:04:18;;;;;;;;;27.75;27.50;;;;;7.26;58.71;-2583.94;5029176;28;45634;-89
2023/01/21 10:06:53;;;;;;;;;31.75;30.25;;;;;7.08;58.70;-2584.03;5034148;28;46535;-90
2023/01/21 10:09:35;;;;;;;;;35.25;34.00;;;;;7.31;59.01;-2914.47;5035201;28;45762;-86
2023/01/21 10:12:17;;;;;;;;;41.00;32.75;;;;;7.40;59.05;-3575.59;5050252;28;45462;-89
2023/01/21 10:15:14;;;;;;;;;50.50;40.50;;;;;7.49;59.25;-3575.69;5036665;28;45611;-89
2023/01/21 10:17:54;;;;;;;;;45.00;36.25;;;;;7.35;58.84;-3245.03;5035443;28;46136;-87
2023/01/21 10:20:28;;;;;;;;;47.00;38.50;;;;;7.26;58.32;-2914.47;5036169;28;45530;-89
2023/01/21 10:23:13;;;;;;;;;48.75;36.25;;;;;6.89;58.44;-2914.50;5037273;28;45733;-90
2023/01/21 10:25:39;;;;;;;;;36.75;33.50;;;;;7.31;58.97;-3245.00;5035308;28;46590;-87
2023/01/21 10:28:17;;;;;;;;;37.75;34.25;;;;;6.82;58.69;-3244.78;5034450;28;46640;-92
2023/01/21 10:30:44;;;;;;;;;40.00;34.50;;;;;7.59;58.18;-3245.13;5032105;28;45452;-91
2023/01/21 10:33:21;;;;;;;;;35.00;29.25;;;;;7.50;58.25;-3245.09;5037046;28;45506;-90
2023/01/21 10:35:52;;;;;;;;;45.00;35.75;;;;;7.68;57.82;-2583.66;5051902;28;45512;-90
2023/01/21 10:38:45;;;;;;;;;42.50;37.00;;;;;7.19;57.37;-1922.88;5030013;28;48117;-92
2023/01/21 10:41:33;;;;;;;;;39.50;35.25;;;;;7.64;57.92;-2583.69;5050130;28;46421;-94
2023/01/21 10:44:18;;;;;;;;;31.50;29.50;;;;;7.36;57.70;-2253.22;5033524;28;45495;-88
2023/01/21 10:47:12;;;;;;;;;36.25;32.25;;;;;7.10;57.77;-2253.53;5028550;28;45589;-84
2023/01/21 10:50:01;;;;;;;;;41.00;35.00;;;;;7.58;57.76;-1922.19;5030319;28;47517;-85
2023/01/21 10:53:02;;;;;;;;;35.00;29.75;;;;;7.35;58.15;-2253.25;5033277;28;45467;-85
2023/01/21 10:55:55;;;;;;;;;40.00;32.25;;;;;7.60;57.54;-1922.16;5027802;28;45717;-84
2023/01/21 10:58:43;;;;;;;;;39.75;35.00;;;;;7.68;58.38;-2583.66;5035725;28;45635;-84
2023/01/21 11:01:19;;;;;;;;;38.50;32.00;;;;;7.74;58.02;-2252.78;4969210;28;45612;-84
2023/01/21 11:03:48;;;;;;;;;41.00;34.75;;;;;7.39;57.89;-2253.19;4968877;28;45451;-84
2023/01/21 11:06:16;;;;;;;;;37.00;31.50;;;;;7.76;58.34;-2583.59;4973336;28;45544;-85
2023/01/21 11:08:57;;;;;;;;;43.25;36.25;;;;;7.60;57.94;-2914.44;4973881;28;45703;-83
2023/01/21 11:11:29;;;;;;;;;39.25;35.00;;;;;8.02;58.12;-3576.19;4972592;28;46356;-85
2023/01/21 11:13:55;;;;;;;;;26.50;23.00;;;;;8.15;57.37;-3576.28;4968253;28;45584;-84
2023/01/21 11:16:35;;;;;;;;;36.00;31.67;;;;;8.21;56.99;-3245.34;4970653;28;45337;-84
2023/01/21 11:19:04;;;;;;;;;37.75;32.50;;;;;8.11;57.29;-3245.31;4970345;28;45551;-83
2023/01/21 11:21:29;;;;;;;;;40.75;35.00;;;;;8.38;57.10;-3576.50;4972648;28;45401;-85
2023/01/21 11:24:00;;;;;;;;;42.50;35.00;;;;;8.00;56.64;-3576.16;4970233;28;45399;-85
2023/01/21 11:26:31;;;;;;;;;46.75;36.00;;;;;8.48;56.70;-3245.47;4968554;28;45822;-85
2023/01/21 11:29:15;;;;;;;;;39.25;31.75;;;;;8.50;56.30;-3245.47;4970187;28;45448;-89
2023/01/21 11:32:02;;;;;;;;;33.00;29.33;;;;;8.57;56.46;-3245.50;4965743;28;46174;-85
2023/01/21 11:34:28;;;;;;;;;36.67;33.00;;;;;8.64;56.52;-3245.53;4969035;28;45780;-83
2023/01/21 11:37:05;;;;;;;;;38.25;32.50;;;;;8.73;56.18;-3576.81;4972810;28;45609;-83
2023/01/21 11:39:39;;;;;;;;;45.50;36.50;;;;;8.77;56.00;-3245.56;5034215;28;45450;-83
2023/01/21 11:42:15;;;;;;;;;34.67;31.00;;;;;8.62;55.61;-2583.00;5033996;28;46098;-86
2023/01/21 11:44:51;;;;;;;;;32.67;29.33;;;;;8.83;55.62;-2914.22;5030824;28;45460;-87
2023/01/21 11:47:49;;;;;;;;;34.67;27.33;;;;;8.82;55.02;-2251.44;5031834;28;45811;-88